Time;durP1;ratioP1;P1;durP2;ratioP2;P2;SDS_P1;SDS_P2;PMS_P1;PMS_P2;Temp;Humidity;BMP_temperature;BMP_pressure;BME280_temperature;BME280_humidity;BME280_pressure;Samples;Min_cycle;Max_cycle;Signal;HPM_P1;HPM_P2
2023/05/10 00:00:04;;;;;;;24.80;4.25;;;32.30;14.90;;;;;;5013936;28;20486;-61
2023/05/10 00:02:30;;;;;;;21.15;3.95;;;32.10;14.90;;;;;;5015563;28;20022;-63
2023/05/10 00:04:57;;;;;;;26.25;4.25;;;32.20;15.00;;;;;;5016184;28;20053;-60
2023/05/10 00:07:23;;;;;;;18.75;4.38;;;32.10;15.20;;;;;;5020857;28;20433;-60
2023/05/10 00:09:50;;;;;;;14.93;3.38;;;32.20;15.50;;;;;;5017378;28;20156;-61
2023/05/10 00:12:16;;;;;;;16.80;3.67;;;31.90;15.50;;;;;;5015590;28;20060;-61
2023/05/10 00:14:42;;;;;;;13.48;3.95;;;31.90;15.70;;;;;;5015438;28;20026;-62
2023/05/10 00:17:09;;;;;;;21.25;3.97;;;32.10;15.80;;;;;;5015987;28;20921;-62
2023/05/10 00:19:35;;;;;;;21.50;3.95;;;32.10;15.80;;;;;;5014770;28;20030;-61
2023/05/10 00:22:01;;;;;;;18.15;3.97;;;32.00;15.70;;;;;;5017913;28;20047;-61
2023/05/10 00:24:28;;;;;;;14.88;3.55;;;31.90;15.90;;;;;;5016485;28;20018;-59
2023/05/10 00:26:54;;;;;;;13.73;3.15;;;31.90;15.80;;;;;;5017236;28;20036;-61
2023/05/10 00:29:21;;;;;;;9.70;3.45;;;31.90;16.20;;;;;;5016897;28;20034;-61
2023/05/10 00:31:47;;;;;;;22.38;3.35;;;31.90;16.70;;;;;;4996618;28;20029;-61
2023/05/10 00:34:13;;;;;;;17.92;3.50;;;31.80;17.30;;;;;;5015034;28;20038;-58
2023/05/10 00:36:40;;;;;;;16.45;3.40;;;31.60;17.90;;;;;;5019218;28;20021;-59
2023/05/10 00:39:07;;;;;;;20.90;3.25;;;31.50;18.20;;;;;;5015049;28;20449;-60
2023/05/10 00:41:34;;;;;;;16.63;3.40;;;31.20;18.40;;;;;;5016720;28;20030;-58
2023/05/10 00:44:01;;;;;;;22.88;3.53;;;31.20;18.60;;;;;;5015584;28;20026;-56
2023/05/10 00:46:28;;;;;;;21.13;3.67;;;31.00;18.90;;;;;;5014753;28;20109;-59
2023/05/10 00:48:54;;;;;;;29.48;3.95;;;31.10;18.80;;;;;;5014260;28;20375;-58
2023/05/10 00:51:21;;;;;;;27.10;3.83;;;31.10;19.10;;;;;;5017174;28;20041;-58
2023/05/10 00:53:48;;;;;;;40.30;4.30;;;31.00;19.50;;;;;;5017041;28;20126;-60
2023/05/10 00:56:15;;;;;;;33.72;3.97;;;30.60;28.50;;;;;;5016525;28;20123;-58
2023/05/10 00:58:42;;;;;;;24.85;3.20;;;30.70;19.50;;;;;;5015700;28;20046;-59
2023/05/10 01:01:10;;;;;;;23.60;3.58;;;30.70;19.60;;;;;;5016734;28;20569;-59
2023/05/10 01:03:37;;;;;;;17.40;3.65;;;30.60;19.50;;;;;;5014076;28;20067;-65
2023/05/10 01:06:03;;;;;;;16.65;2.33;;;30.60;19.70;;;;;;5016380;28;20036;-64
2023/05/10 01:08:30;;;;;;;12.45;2.60;;;30.50;20.00;;;;;;5016598;28;20861;-61
2023/05/10 01:10:57;;;;;;;11.45;2.78;;;30.40;19.90;;;;;;5014445;28;20505;-60
2023/05/10 01:13:41;;;;;;;22.08;3.55;;;30.20;20.00;;;;;;5016495;28;20038;-62
2023/05/10 01:16:07;;;;;;;24.88;3.55;;;30.20;20.10;;;;;;5016507;28;20404;-64
2023/05/10 01:18:39;;;;;;;21.52;3.25;;;30.10;19.90;;;;;;5015650;28;20055;-59
2023/05/10 01:21:15;;;;;;;22.50;3.17;;;30.10;20.10;;;;;;5014419;28;20044;-63
2023/05/10 01:24:25;;;;;;;14.80;2.83;;;30.00;20.10;;;;;;5015384;28;20029;-61
2023/05/10 01:27:16;;;;;;;22.70;3.58;;;29.90;20.10;;;;;;5014546;28;20396;-60
2023/05/10 01:30:20;;;;;;;21.58;3.55;;;29.90;20.50;;;;;;5010958;28;20032;-60
2023/05/10 01:32:52;;;;;;;14.65;2.58;;;29.90;20.00;;;;;;5015466;28;20032;-60
2023/05/10 01:35:37;;;;;;;36.47;4.30;;;29.90;20.00;;;;;;5014315;28;20033;-62
2023/05/10 01:38:41;;;;;;;15.00;3.20;;;30.00;19.90;;;;;;5015499;28;20493;-61
2023/05/10 01:41:25;;;;;;;117.05;10.48;;;30.10;20.20;;;;;;5014764;28;20484;-59
2023/05/10 01:43:57;;;;;;;27.88;3.92;;;30.10;20.00;;;;;;5013079;28;20041;-60
2023/05/10 01:46:32;;;;;;;34.35;3.33;;;29.90;20.10;;;;;;5012371;28;20057;-58
2023/05/10 01:49:02;;;;;;;22.30;2.60;;;29.90;20.50;;;;;;5014307;28;20140;-58
2023/05/10 01:51:37;;;;;;;13.88;2.55;;;30.20;20.10;;;;;;5014636;28;20030;-60
2023/05/10 01:54:05;;;;;;;17.75;3.40;;;30.20;20.30;;;;;;5014875;28;20085;-58
2023/05/10 01:56:35;;;;;;;20.25;3.17;;;29.70;20.50;;;;;;5011099;28;20030;-58
2023/05/10 01:59:09;;;;;;;18.38;3.15;;;29.30;20.80;;;;;;5013127;28;20034;-60
2023/05/10 02:01:38;;;;;;;9.93;3.03;;;29.00;21.10;;;;;;5010036;28;20092;-58
2023/05/10 02:04:07;;;;;;;14.95;3.33;;;28.70;21.30;;;;;;5011539;28;20392;-59
2023/05/10 02:06:34;;;;;;;11.15;2.65;;;28.60;21.60;;;;;;5014468;28;20100;-59
2023/05/10 02:09:01;;;;;;;18.60;3.70;;;28.40;21.50;;;;;;5014628;28;20032;-60
2023/05/10 02:11:29;;;;;;;25.80;3.50;;;28.30;21.60;;;;;;5013522;28;20161;-60
2023/05/10 02:13:58;;;;;;;16.80;2.22;;;28.20;21.80;;;;;;5014332;28;20053;-59
2023/05/10 02:16:26;;;;;;;12.10;2.90;;;28.00;22.00;;;;;;5014822;28;20095;-60
2023/05/10 02:18:54;;;;;;;14.07;2.60;;;27.80;22.10;;;;;;5014041;28;20524;-59
2023/05/10 02:21:22;;;;;;;12.02;2.60;;;27.70;22.30;;;;;;5014262;28;20091;-61
2023/05/10 02:23:51;;;;;;;15.43;2.88;;;27.60;22.50;;;;;;5011315;28;20629;-58
2023/05/10 02:26:20;;;;;;;10.52;3.08;;;27.50;22.80;;;;;;5012670;28;20503;-60
2023/05/10 02:28:47;;;;;;;14.00;4.68;;;27.50;23.00;;;;;;5012000;28;20093;-60
2023/05/10 02:31:14;;;;;;;18.05;3.80;;;27.50;23.20;;;;;;5010740;28;20046;-60
2023/05/10 02:33:43;;;;;;;16.88;3.05;;;27.30;23.60;;;;;;5013807;28;20465;-59
2023/05/10 02:36:11;;;;;;;19.58;4.32;;;27.20;23.70;;;;;;5011683;28;20509;-62
2023/05/10 02:38:38;;;;;;;14.25;3.30;;;27.00;23.80;;;;;;5014504;28;20100;-61
2023/05/10 02:41:08;;;;;;;15.90;3.42;;;27.00;24.10;;;;;;5017114;28;20089;-61
2023/05/10 02:43:35;;;;;;;19.63;3.63;;;27.00;24.60;;;;;;5010767;28;20050;-61
2023/05/10 02:46:02;;;;;;;19.88;3.90;;;26.90;24.90;;;;;;5010122;28;20056;-60
2023/05/10 02:48:29;;;;;;;24.15;3.63;;;26.70;25.30;;;;;;5011766;28;20093;-61
2023/05/10 02:51:00;;;;;;;15.45;3.00;;;26.50;25.50;;;;;;5012798;28;20131;-61
2023/05/10 02:53:38;;;;;;;11.80;2.70;;;26.50;25.70;;;;;;5012740;28;20062;-58
2023/05/10 02:56:29;;;;;;;12.23;3.05;;;26.40;25.80;;;;;;5012881;28;20051;-60
2023/05/10 02:58:56;;;;;;;24.45;3.63;;;26.30;26.00;;;;;;5011464;28;20068;-61
2023/05/10 03:01:22;;;;;;;17.80;3.00;;;26.10;26.60;;;;;;5009731;28;20046;-59
2023/05/10 03:03:49;;;;;;;12.82;2.97;;;26.10;27.10;;;;;;5011226;28;20060;-58
2023/05/10 03:06:16;;;;;;;20.40;3.20;;;26.00;27.80;;;;;;5010258;28;20068;-60
2023/05/10 03:08:44;;;;;;;36.90;4.47;;;25.80;28.40;;;;;;5011087;28;20079;-60
2023/05/10 03:11:53;;;;;;;36.15;3.95;;;25.70;29.90;;;;;;5010491;28;20074;-60
2023/05/10 03:14:38;;;;;;;19.23;3.92;;;25.70;31.10;;;;;;5009848;28;20054;-60
2023/05/10 03:17:12;;;;;;;29.08;4.45;;;25.50;31.60;;;;;;5010845;28;20105;-61
2023/05/10 03:20:03;;;;;;;22.13;3.70;;;25.40;31.70;;;;;;5010859;28;20077;-61
2023/05/10 03:22:37;;;;;;;19.65;4.00;;;25.50;31.40;;;;;;5012041;28;20068;-60
2023/05/10 03:25:06;;;;;;;37.88;5.53;;;25.30;30.90;;;;;;5011201;28;20544;-60
2023/05/10 03:27:35;;;;;;;22.23;3.95;;;25.30;31.10;;;;;;5011840;28;20065;-58
2023/05/10 03:30:03;;;;;;;25.05;4.88;;;25.10;31.10;;;;;;5011614;28;20062;-61
2023/05/10 03:32:31;;;;;;;45.88;4.97;;;25.10;31.40;;;;;;5011258;28;20080;-61
2023/05/10 03:34:58;;;;;;;22.45;3.95;;;25.10;31.50;;;;;;5012122;28;20054;-61
2023/05/10 03:37:24;;;;;;;23.05;3.65;;;25.00;31.60;;;;;;5010414;28;20437;-60
2023/05/10 03:39:50;;;;;;;21.55;3.97;;;25.00;32.00;;;;;;5010535;28;20183;-61
2023/05/10 03:42:17;;;;;;;17.98;3.50;;;24.90;32.20;;;;;;5012135;28;20060;-61
2023/05/10 03:44:44;;;;;;;28.67;3.53;;;24.90;32.60;;;;;;5013166;28;20102;-62
2023/05/10 03:47:10;;;;;;;15.45;3.65;;;24.90;33.10;;;;;;5011395;28;20092;-61
2023/05/10 03:49:36;;;;;;;21.13;3.17;;;24.70;33.20;;;;;;5012794;28;20089;-61
2023/05/10 03:52:03;;;;;;;20.10;3.42;;;24.60;32.90;;;;;;5011195;28;20095;-59
2023/05/10 03:54:29;;;;;;;22.52;4.38;;;24.60;33.30;;;;;;5013124;28;20147;-62
2023/05/10 03:56:56;;;;;;;24.38;4.10;;;24.50;33.30;;;;;;5010317;28;20089;-59
2023/05/10 03:59:22;;;;;;;20.63;3.88;;;24.50;33.50;;;;;;4990288;28;20160;-61
2023/05/10 04:01:48;;;;;;;20.58;4.18;;;24.40;33.60;;;;;;5009806;28;20055;-62
2023/05/10 04:04:15;;;;;;;28.80;3.90;;;24.40;32.90;;;;;;5012785;28;20565;-61
2023/05/10 04:06:41;;;;;;;23.42;3.88;;;24.40;32.60;;;;;;5009817;28;20086;-60
2023/05/10 04:09:08;;;;;;;34.85;4.93;;;24.30;33.00;;;;;;5010856;28;20071;-61
2023/05/10 04:11:34;;;;;;;26.77;3.88;;;24.30;33.40;;;;;;5011050;28;20532;-60
2023/05/10 04:14:01;;;;;;;31.17;4.72;;;24.20;34.10;;;;;;5009639;28;20208;-61
2023/05/10 04:16:27;;;;;;;75.53;6.88;;;24.00;33.60;;;;;;5011812;28;20552;-60
2023/05/10 04:18:54;;;;;;;21.63;4.10;;;24.00;33.90;;;;;;5013606;28;20619;-60
2023/05/10 04:21:20;;;;;;;26.50;4.65;;;23.90;34.50;;;;;;5015055;28;20079;-60
2023/05/10 04:23:46;;;;;;;38.90;4.90;;;23.90;34.90;;;;;;5015066;28;20100;-61
2023/05/10 04:26:13;;;;;;;37.28;4.63;;;23.80;34.70;;;;;;5015791;28;20083;-60
2023/05/10 04:28:40;;;;;;;47.80;5.70;;;23.70;35.30;;;;;;5015509;28;20064;-60
2023/05/10 04:31:08;;;;;;;77.05;8.13;;;23.60;35.80;;;;;;5015388;28;20100;-60
2023/05/10 04:33:35;;;;;;;135.10;11.23;;;23.60;36.10;;;;;;5013879;28;20517;-58
2023/05/10 04:36:02;;;;;;;173.70;13.85;;;23.40;36.80;;;;;;5013672;28;20070;-61
2023/05/10 04:38:29;;;;;;;218.32;16.95;;;23.30;37.80;;;;;;5014434;28;20534;-59
2023/05/10 04:41:05;;;;;;;228.75;19.60;;;23.10;38.40;;;;;;5014713;28;20069;-57
2023/05/10 04:43:31;;;;;;;184.40;13.15;;;22.90;37.20;;;;;;5015006;28;20067;-60
2023/05/10 04:45:58;;;;;;;155.55;10.93;;;23.00;37.50;;;;;;5013319;28;20536;-61
2023/05/10 04:48:24;;;;;;;142.27;9.80;;;23.00;36.10;;;;;;5015494;28;20104;-63
2023/05/10 04:50:50;;;;;;;87.90;9.40;;;23.00;35.60;;;;;;5017539;28;20073;-62
2023/05/10 04:53:17;;;;;;;135.68;9.80;;;23.00;36.60;;;;;;5015575;28;20082;-62
2023/05/10 04:55:43;;;;;;;118.78;10.65;;;23.00;34.50;;;;;;5014175;28;20070;-61
2023/05/10 04:58:10;;;;;;;122.85;9.40;;;23.00;32.60;;;;;;5013921;28;20091;-61
2023/05/10 05:00:36;;;;;;;114.47;9.52;;;23.00;33.10;;;;;;5012774;28;20075;-62
2023/05/10 05:03:03;;;;;;;92.30;8.75;;;23.00;33.60;;;;;;5013964;28;20543;-59
2023/05/10 05:05:29;;;;;;;87.47;6.20;;;22.80;34.70;;;;;;5014118;28;20088;-58
2023/05/10 05:07:56;;;;;;;62.63;6.28;;;22.60;36.10;;;;;;5015555;28;20074;-58
2023/05/10 05:10:22;;;;;;;38.75;5.05;;;22.50;37.80;;;;;;5013675;28;20074;-60
2023/05/10 05:12:48;;;;;;;29.42;3.90;;;22.30;39.00;;;;;;5014724;28;20066;-58
2023/05/10 05:15:16;;;;;;;31.65;3.50;;;22.10;39.40;;;;;;5013288;28;20095;-59
2023/05/10 05:17:43;;;;;;;33.40;3.60;;;21.90;39.00;;;;;;5014613;28;20102;-60
2023/05/10 05:20:10;;;;;;;26.55;3.53;;;21.80;38.20;;;;;;5015162;28;20082;-60
2023/05/10 05:22:37;;;;;;;23.08;2.85;;;21.60;37.60;;;;;;5011298;28;20095;-58
2023/05/10 05:25:04;;;;;;;43.72;3.70;;;21.70;36.40;;;;;;5014659;28;20079;-58
2023/05/10 05:27:32;;;;;;;21.92;3.22;;;21.70;35.60;;;;;;5012186;28;20513;-59
2023/05/10 05:29:58;;;;;;;32.42;3.13;;;21.70;33.50;;;;;;5010404;28;20117;-60
2023/05/10 05:32:25;;;;;;;48.50;4.25;;;21.80;31.80;;;;;;5014091;28;20079;-58
2023/05/10 05:34:52;;;;;;;52.42;5.53;;;21.80;30.40;;;;;;5014572;28;20477;-56
2023/05/10 05:37:21;;;;;;;45.40;3.50;;;21.90;29.60;;;;;;5013658;28;20070;-61
2023/05/10 05:39:47;;;;;;;37.85;3.72;;;21.90;29.30;;;;;;5013336;28;20081;-54
2023/05/10 05:42:15;;;;;;;45.10;3.95;;;22.00;29.20;;;;;;5015448;28;20561;-58
2023/05/10 05:44:42;;;;;;;39.67;4.13;;;21.90;29.00;;;;;;5015572;28;20081;-60
2023/05/10 05:47:09;;;;;;;44.58;4.10;;;21.90;29.00;;;;;;5013060;28;20466;-58
2023/05/10 05:49:35;;;;;;;43.65;3.47;;;21.90;28.80;;;;;;5013135;28;20087;-62
2023/05/10 05:52:03;;;;;;;59.05;4.25;;;21.80;29.20;;;;;;5012514;28;20142;-61
2023/05/10 05:54:30;;;;;;;64.68;5.13;;;21.80;29.60;;;;;;5011073;28;20142;-61
2023/05/10 05:56:57;;;;;;;51.38;4.15;;;21.70;29.90;;;;;;5013788;28;20183;-62
2023/05/10 05:59:24;;;;;;;43.70;3.65;;;21.60;30.40;;;;;;5014788;28;20560;-61
2023/05/10 06:01:50;;;;;;;15.40;2.50;;;21.50;31.00;;;;;;5011628;28;20075;-60
2023/05/10 06:04:17;;;;;;;35.50;3.50;;;21.50;31.80;;;;;;5011893;28;20072;-64
2023/05/10 06:06:44;;;;;;;30.50;3.83;;;21.20;33.60;;;;;;5012875;28;20064;-64
2023/05/10 06:09:10;;;;;;;41.10;4.35;;;21.10;34.70;;;;;;5013844;28;20557;-64
2023/05/10 06:11:37;;;;;;;27.58;4.07;;;20.90;35.30;;;;;;5012398;28;20076;-61
2023/05/10 06:14:06;;;;;;;66.45;5.72;;;20.80;36.20;;;;;;5011783;28;20080;-64
2023/05/10 06:16:33;;;;;;;61.58;5.03;;;20.60;37.30;;;;;;5012170;28;20437;-66
2023/05/10 06:19:00;;;;;;;51.47;4.50;;;20.50;37.80;;;;;;5011870;28;20093;-63
2023/05/10 06:21:26;;;;;;;62.13;6.00;;;20.50;38.90;;;;;;5013307;28;20062;-63
2023/05/10 06:23:52;;;;;;;49.28;5.28;;;20.30;40.60;;;;;;5013730;28;20069;-61
2023/05/10 06:26:20;;;;;;;45.42;6.68;;;20.20;42.10;;;;;;5013475;28;20146;-61
2023/05/10 06:28:47;;;;;;;58.08;5.82;;;20.00;42.90;;;;;;5013817;28;20160;-61
2023/05/10 06:31:13;;;;;;;42.92;4.82;;;19.90;43.70;;;;;;5010558;28;20088;-65
2023/05/10 06:33:40;;;;;;;107.05;10.02;;;19.80;44.20;;;;;;5011809;28;20164;-63
2023/05/10 06:36:06;;;;;;;28.30;4.65;;;19.70;45.10;;;;;;5012003;28;20081;-57
2023/05/10 06:38:33;;;;;;;40.80;4.60;;;19.60;45.80;;;;;;5013282;28;20545;-58
2023/05/10 06:40:59;;;;;;;31.10;4.63;;;19.50;46.70;;;;;;5011731;28;20101;-63
2023/05/10 06:43:26;;;;;;;34.22;4.20;;;19.50;47.40;;;;;;5011761;28;20215;-63
2023/05/10 06:45:52;;;;;;;31.52;3.75;;;19.50;47.80;;;;;;5014973;28;20104;-65
2023/05/10 06:48:18;;;;;;;39.08;4.90;;;19.30;48.10;;;;;;5011833;28;20121;-63
2023/05/10 06:50:45;;;;;;;98.72;7.97;;;19.30;48.80;;;;;;5010865;28;20077;-61
2023/05/10 06:53:11;;;;;;;86.78;7.10;;;19.20;49.40;;;;;;5012117;28;20437;-62
2023/05/10 06:55:38;;;;;;;87.90;6.40;;;19.20;50.00;;;;;;5012208;28;20548;-60
2023/05/10 06:58:04;;;;;;;51.08;5.28;;;19.10;50.40;;;;;;5010745;28;20097;-59
2023/05/10 07:00:31;;;;;;;38.88;5.10;;;19.20;50.80;;;;;;5010919;28;20215;-61
2023/05/10 07:02:58;;;;;;;39.42;4.43;;;19.20;50.90;;;;;;5011410;28;20155;-60
2023/05/10 07:05:24;;;;;;;29.85;4.38;;;19.20;51.20;;;;;;5012633;28;20075;-63
2023/05/10 07:07:51;;;;;;;33.40;4.70;;;19.10;51.30;;;;;;5012542;28;20072;-61
2023/05/10 07:10:17;;;;;;;32.75;4.32;;;19.10;51.40;;;;;;5011652;28;20073;-60
2023/05/10 07:12:44;;;;;;;52.90;14.98;;;19.10;51.40;;;;;;5011574;28;20118;-60
2023/05/10 07:15:10;;;;;;;51.75;16.30;;;19.10;51.60;;;;;;5011915;28;20158;-59
2023/05/10 07:17:37;;;;;;;35.05;4.82;;;19.10;51.80;;;;;;5012303;28;20088;-62
2023/05/10 07:20:03;;;;;;;28.65;3.90;;;19.00;52.00;;;;;;5012653;28;20175;-61
2023/05/10 07:22:30;;;;;;;16.02;3.20;;;19.00;52.90;;;;;;5011335;28;20064;-61
2023/05/10 07:24:56;;;;;;;18.60;2.92;;;19.00;52.60;;;;;;5010523;28;20561;-61
2023/05/10 07:27:22;;;;;;;16.73;3.00;;;19.00;52.90;;;;;;5010469;28;20066;-62
2023/05/10 07:29:49;;;;;;;17.67;2.85;;;19.00;53.00;;;;;;5010946;28;20148;-64
2023/05/10 07:32:15;;;;;;;16.35;2.55;;;18.90;53.00;;;;;;5011621;28;20084;-59
2023/05/10 07:34:42;;;;;;;14.23;2.58;;;19.00;53.10;;;;;;5011174;28;20080;-59
2023/05/10 07:37:08;;;;;;;24.50;3.15;;;18.90;52.80;;;;;;5011190;28;20547;-59
2023/05/10 07:39:34;;;;;;;23.70;3.50;;;19.00;52.60;;;;;;5011985;28;20179;-58
2023/05/10 07:42:01;;;;;;;29.45;3.35;;;19.00;52.20;;;;;;5011340;28;20076;-63
2023/05/10 07:44:27;;;;;;;26.42;4.40;;;19.00;51.90;;;;;;5011822;28;20071;-61
2023/05/10 07:46:53;;;;;;;30.08;3.50;;;19.00;51.60;;;;;;5014460;28;20100;-61
2023/05/10 07:49:20;;;;;;;25.55;3.00;;;19.00;51.80;;;;;;5011347;28;20527;-61
2023/05/10 07:51:46;;;;;;;16.13;3.08;;;19.10;51.80;;;;;;5011318;28;20100;-60
2023/05/10 07:54:13;;;;;;;20.35;2.92;;;19.10;51.80;;;;;;5012995;28;20089;-59
2023/05/10 07:56:45;;;;;;;17.98;3.00;;;19.10;52.00;;;;;;5012598;28;20084;-60
2023/05/10 07:59:16;;;;;;;18.98;2.47;;;19.10;52.00;;;;;;5013713;28;20544;-59
2023/05/10 08:01:43;;;;;;;31.20;3.38;;;19.10;52.80;;;;;;5013393;28;20087;-59
2023/05/10 08:04:09;;;;;;;31.05;3.55;;;19.10;52.40;;;;;;5013928;28;20205;-61
2023/05/10 08:06:36;;;;;;;30.67;3.47;;;19.10;52.40;;;;;;5015356;28;20073;-60
2023/05/10 08:09:02;;;;;;;21.15;3.65;;;19.00;52.30;;;;;;5017195;28;20145;-61
2023/05/10 08:11:28;;;;;;;23.25;3.42;;;19.10;52.30;;;;;;5016916;28;20098;-58
2023/05/10 08:13:55;;;;;;;25.52;3.25;;;19.10;52.00;;;;;;5014467;28;20083;-58
2023/05/10 08:16:21;;;;;;;42.08;4.25;;;19.10;51.90;;;;;;5013736;28;20083;-60
2023/05/10 08:18:48;;;;;;;60.05;4.85;;;19.10;51.30;;;;;;5015404;28;20470;-58
2023/05/10 08:21:15;;;;;;;34.72;4.13;;;19.00;50.60;;;;;;5013999;28;20533;-60
2023/05/10 08:23:43;;;;;;;37.10;3.40;;;19.00;50.60;;;;;;5013682;28;20504;-61
2023/05/10 08:26:10;;;;;;;26.42;2.97;;;19.00;50.30;;;;;;5013767;28;20168;-59
2023/05/10 08:28:36;;;;;;;31.98;3.45;;;18.90;50.50;;;;;;5016209;28;20071;-60
2023/05/10 08:31:03;;;;;;;25.95;2.88;;;18.90;50.60;;;;;;5015022;28;20072;-59
2023/05/10 08:33:29;;;;;;;26.88;2.97;;;18.90;50.20;;;;;;5016510;28;20259;-61
2023/05/10 08:35:55;;;;;;;22.52;2.85;;;18.90;50.20;;;;;;5013642;28;20107;-60
2023/05/10 08:38:22;;;;;;;21.67;2.20;;;18.80;50.50;;;;;;5014512;28;20546;-59
2023/05/10 08:40:50;;;;;;;21.48;2.92;;;18.90;50.80;;;;;;5014299;28;20069;-59
2023/05/10 08:43:17;;;;;;;26.77;2.78;;;18.80;51.10;;;;;;5014618;28;20075;-61
2023/05/10 08:45:47;;;;;;;44.55;3.15;;;18.70;51.30;;;;;;5012449;28;20091;-57
2023/05/10 08:48:15;;;;;;;34.88;3.55;;;18.70;51.50;;;;;;5014839;28;20580;-61
2023/05/10 08:50:42;;;;;;;58.90;5.30;;;18.60;51.80;;;;;;5014154;28;20068;-59
2023/05/10 08:53:13;;;;;;;38.85;4.28;;;18.50;52.30;;;;;;5013343;28;20065;-60
2023/05/10 08:55:42;;;;;;;60.35;4.75;;;18.40;52.70;;;;;;5012757;28;20111;-60
2023/05/10 08:58:09;;;;;;;40.63;3.50;;;18.30;53.20;;;;;;5013031;28;20089;-58
2023/05/10 09:00:39;;;;;;;68.97;5.85;;;18.30;53.50;;;;;;5016912;28;20071;-61
2023/05/10 09:03:06;;;;;;;51.88;5.30;;;18.20;54.10;;;;;;5017535;28;20050;-59
2023/05/10 09:05:33;;;;;;;53.35;5.13;;;18.10;54.30;;;;;;5016112;28;20073;-59
2023/05/10 09:08:00;;;;;;;45.47;4.15;;;18.10;54.40;;;;;;5017220;28;20530;-60
2023/05/10 09:10:27;;;;;;;34.13;4.40;;;18.20;54.10;;;;;;5014953;28;20180;-59
2023/05/10 09:12:57;;;;;;;37.05;4.10;;;18.20;54.10;;;;;;5013489;28;20093;-60
2023/05/10 09:15:23;;;;;;;46.35;4.80;;;18.20;54.40;;;;;;5013741;28;20075;-60
2023/05/10 09:17:50;;;;;;;35.70;3.83;;;18.10;54.50;;;;;;5013656;28;20091;-60
2023/05/10 09:20:20;;;;;;;34.85;3.17;;;18.10;54.50;;;;;;5014372;28;20066;-60
2023/05/10 09:22:47;;;;;;;26.08;3.42;;;18.20;54.30;;;;;;5012950;28;20574;-62
2023/05/10 09:25:16;;;;;;;39.45;2.95;;;18.20;54.00;;;;;;5014419;28;20071;-60
2023/05/10 09:27:47;;;;;;;24.67;2.83;;;18.20;54.00;;;;;;5011568;28;20955;-61
2023/05/10 09:30:28;;;;;;;25.98;2.55;;;17.90;53.90;;;;;;5009805;28;20543;-62
2023/05/10 09:32:55;;;;;;;29.83;3.97;;;18.30;53.80;;;;;;5013833;28;20102;-59
2023/05/10 09:35:24;;;;;;;30.52;3.13;;;18.20;54.10;;;;;;5012686;28;20581;-58
2023/05/10 09:37:53;;;;;;;32.67;3.05;;;18.30;53.60;;;;;;5012465;28;20147;-60
2023/05/10 09:40:25;;;;;;;44.70;4.38;;;18.30;53.20;;;;;;5012263;28;20090;-60
2023/05/10 09:43:00;;;;;;;33.78;2.85;;;18.30;53.20;;;;;;5012003;28;20046;-59
2023/05/10 09:45:31;;;;;;;20.85;3.05;;;18.00;53.70;;;;;;5012660;28;20065;-59
2023/05/10 09:47:58;;;;;;;29.63;2.88;;;18.00;54.00;;;;;;5013508;28;20104;-59
2023/05/10 09:50:26;;;;;;;14.95;3.03;;;17.90;54.00;;;;;;5000232;28;20075;-58
2023/05/10 09:52:58;;;;;;;25.17;3.17;;;17.80;54.00;;;;;;5012709;28;20493;-57
2023/05/10 09:55:37;;;;;;;32.15;3.55;;;17.80;53.60;;;;;;5011979;28;20089;-61
2023/05/10 09:58:06;;;;;;;13.60;1.95;;;17.70;53.40;;;;;;5011705;28;20093;-60
2023/05/10 10:00:37;;;;;;;11.98;2.03;;;17.70;53.40;;;;;;5009985;28;20097;-59
2023/05/10 10:03:05;;;;;;;10.98;1.70;;;17.70;53.30;;;;;;5012950;28;20081;-59
2023/05/10 10:05:36;;;;;;;7.57;1.40;;;17.60;53.90;;;;;;5012106;28;20077;-62
2023/05/10 10:08:05;;;;;;;17.85;1.88;;;17.50;54.60;;;;;;5012657;28;20160;-60
2023/05/10 10:10:33;;;;;;;14.57;3.17;;;17.50;55.30;;;;;;5014406;28;20077;-61
2023/05/10 10:13:00;;;;;;;10.38;1.60;;;17.50;55.80;;;;;;5013326;28;20156;-59
2023/05/10 10:15:27;;;;;;;8.77;1.65;;;17.40;56.00;;;;;;5013208;28;20069;-60
2023/05/10 10:17:54;;;;;;;13.25;1.95;;;17.40;56.20;;;;;;5015719;28;20072;-60
2023/05/10 10:20:22;;;;;;;6.82;1.20;;;17.40;56.50;;;;;;5016867;28;20097;-62
2023/05/10 10:22:48;;;;;;;9.75;1.45;;;17.30;56.50;;;;;;5016093;28;20113;-63
2023/05/10 10:25:17;;;;;;;13.43;1.15;;;17.20;56.50;;;;;;5013618;28;20076;-59
2023/05/10 10:27:52;;;;;;;11.30;2.00;;;17.20;56.30;;;;;;5012069;28;20172;-61
2023/05/10 10:30:24;;;;;;;12.07;2.30;;;17.00;55.60;;;;;;5011198;28;20079;-61
2023/05/10 10:33:09;;;;;;;6.95;1.38;;;17.00;55.60;;;;;;5012260;28;20091;-61
2023/05/10 10:35:36;;;;;;;22.10;1.77;;;17.10;55.60;;;;;;5012217;28;20119;-61
2023/05/10 10:38:03;;;;;;;23.08;1.85;;;17.10;55.60;;;;;;5012617;28;20172;-59
2023/05/10 10:40:33;;;;;;;41.38;4.47;;;17.10;55.70;;;;;;5010846;28;20093;-62
2023/05/10 10:43:28;;;;;;;42.50;4.38;;;17.10;56.10;;;;;;5010426;28;21014;-62
2023/05/10 10:46:17;;;;;;;45.55;4.30;;;17.00;55.70;;;;;;5010636;28;20092;-59
2023/05/10 10:49:10;;;;;;;33.55;3.90;;;17.10;55.80;;;;;;5013396;28;20152;-62
2023/05/10 10:51:40;;;;;;;33.83;3.45;;;17.00;55.70;;;;;;5009523;28;20080;-57
2023/05/10 10:54:10;;;;;;;31.45;3.63;;;17.00;55.70;;;;;;5013337;28;20081;-59
2023/05/10 10:56:37;;;;;;;42.83;3.55;;;17.00;55.70;;;;;;5010332;28;20097;-65
2023/05/10 10:59:03;;;;;;;34.95;3.97;;;17.10;55.70;;;;;;5010739;28;20164;-61
2023/05/10 11:01:35;;;;;;;39.30;3.70;;;17.00;55.50;;;;;;5009931;28;20085;-59
2023/05/10 11:04:05;;;;;;;19.85;2.50;;;17.00;55.30;;;;;;5010949;28;20109;-61
2023/05/10 11:06:35;;;;;;;16.23;2.25;;;17.00;54.90;;;;;;5011835;28;20077;-61
2023/05/10 11:09:09;;;;;;;23.48;2.65;;;17.00;54.70;;;;;;5011593;28;20081;-61
2023/05/10 11:11:48;;;;;;;18.63;2.42;;;17.00;54.10;;;;;;5011038;28;20437;-60
2023/05/10 11:14:14;;;;;;;16.48;2.33;;;17.00;53.50;;;;;;5010383;28;20112;-61
2023/05/10 11:16:43;;;;;;;8.50;1.45;;;17.00;53.30;;;;;;5010456;28;20628;-60
2023/05/10 11:19:14;;;;;;;14.20;1.48;;;17.00;53.10;;;;;;5010590;28;20547;-58
2023/05/10 11:22:11;;;;;;;6.53;1.42;;;16.90;53.10;;;;;;5011654;28;20077;-59
2023/05/10 11:24:37;;;;;;;22.30;1.63;;;16.90;53.30;;;;;;5001238;28;20108;-57
2023/05/10 11:27:04;;;;;;;5.65;1.27;;;16.90;53.50;;;;;;5012830;28;20138;-58
2023/05/10 11:29:30;;;;;;;3.50;1.00;;;16.90;53.50;;;;;;5014872;28;20146;-59
2023/05/10 11:31:58;;;;;;;10.95;1.70;;;16.80;53.50;;;;;;5013651;28;20580;-61
2023/05/10 11:34:31;;;;;;;11.70;1.42;;;16.90;53.60;;;;;;5014941;28;20081;-60
2023/05/10 11:36:58;;;;;;;11.45;2.30;;;16.80;53.70;;;;;;5015183;28;20589;-57
2023/05/10 11:39:29;;;;;;;10.35;2.03;;;16.80;53.80;;;;;;5015073;28;20093;-60
2023/05/10 11:41:56;;;;;;;10.25;1.95;;;16.80;53.90;;;;;;5015240;28;20070;-62
2023/05/10 11:44:23;;;;;;;8.25;1.90;;;16.80;53.80;;;;;;5015319;28;20084;-58
2023/05/10 11:46:50;;;;;;;10.82;2.10;;;16.90;53.70;;;;;;5014874;28;20065;-56
2023/05/10 11:49:16;;;;;;;11.38;2.35;;;16.90;53.70;;;;;;5014589;28;20549;-61
2023/05/10 11:51:43;;;;;;;4.85;1.60;;;16.90;53.80;;;;;;5013957;28;20560;-63
2023/05/10 11:54:11;;;;;;;6.47;1.80;;;16.90;53.70;;;;;;5016900;28;20163;-63
2023/05/10 11:56:39;;;;;;;7.72;1.95;;;16.80;53.50;;;;;;5017026;28;20097;-58
2023/05/10 11:59:05;;;;;;;9.52;1.55;;;16.80;53.30;;;;;;5014944;28;20085;-60
2023/05/10 12:01:32;;;;;;;5.88;1.60;;;16.90;53.10;;;;;;5012544;28;20168;-61
2023/05/10 12:03:59;;;;;;;5.93;1.60;;;16.80;52.90;;;;;;5015512;28;20080;-60
2023/05/10 12:06:35;;;;;;;8.23;1.67;;;16.80;52.50;;;;;;5014282;28;20076;-60
2023/05/10 12:09:07;;;;;;;6.43;1.60;;;16.80;52.40;;;;;;5015337;28;20167;-58
2023/05/10 12:11:38;;;;;;;7.38;1.98;;;16.80;52.10;;;;;;5015285;28;20073;-58
2023/05/10 12:14:05;;;;;;;18.05;2.45;;;16.80;52.10;;;;;;5014050;28;20076;-57
2023/05/10 12:16:32;;;;;;;5.97;2.05;;;16.90;52.10;;;;;;5013498;28;20073;-59
2023/05/10 12:19:00;;;;;;;6.82;1.88;;;16.80;51.90;;;;;;5013656;28;20098;-57
2023/05/10 12:21:28;;;;;;;5.20;2.22;;;16.90;52.00;;;;;;5015773;28;20064;-58
2023/05/10 12:24:01;;;;;;;7.43;2.50;;;16.90;52.00;;;;;;5015704;28;20073;-58
2023/05/10 12:26:29;;;;;;;11.85;1.70;;;16.80;52.00;;;;;;5014834;28;20086;-60
2023/05/10 12:29:11;;;;;;;8.55;1.75;;;16.80;52.20;;;;;;5014758;28;20085;-63
2023/05/10 12:31:54;;;;;;;7.45;1.92;;;16.80;52.00;;;;;;5012583;28;20069;-59
2023/05/10 12:34:31;;;;;;;13.90;1.50;;;16.80;52.00;;;;;;5013695;28;20076;-56
2023/05/10 12:36:59;;;;;;;12.07;1.63;;;16.80;51.90;;;;;;5012255;28;20139;-57
2023/05/10 12:39:25;;;;;;;9.63;1.27;;;16.80;51.90;;;;;;5014108;28;20092;-58
2023/05/10 12:41:52;;;;;;;16.42;1.58;;;16.80;51.90;;;;;;5014656;28;20486;-59
2023/05/10 12:44:19;;;;;;;8.50;1.30;;;16.90;51.80;;;;;;5014459;28;20077;-63
2023/05/10 12:46:45;;;;;;;7.15;1.70;;;16.90;51.70;;;;;;5013562;28;20076;-59